createdAt,value
2018-07-20T00:04:17.303Z,67.60
2018-07-20T00:09:20.348Z,68.30
2018-07-20T00:14:23.441Z,68.10
2018-07-20T00:19:26.481Z,68.30
2018-07-20T00:24:29.590Z,69.10
2018-07-20T00:29:32.813Z,69.00
2018-07-20T00:34:35.863Z,69.40
2018-07-20T00:39:38.934Z,70.20
2018-07-20T00:49:46.370Z,71.60
2018-07-20T00:54:52.045Z,72.30
2018-07-20T00:59:55.150Z,73.30
2018-07-20T01:04:58.252Z,73.10
2018-07-20T01:10:01.253Z,74.50
2018-07-20T01:15:04.460Z,75.10
2018-07-20T01:20:07.901Z,76.00
2018-07-20T01:25:10.925Z,76.10
2018-07-20T01:30:13.944Z,76.90
2018-07-20T01:35:16.986Z,77.10
2018-07-20T01:40:20.007Z,78.00
2018-07-20T01:45:23.003Z,78.80
2018-07-20T01:50:26.043Z,79.90
2018-07-20T01:55:29.063Z,80.10
2018-07-20T02:00:32.087Z,81.20
2018-07-20T02:05:35.117Z,82.10
2018-07-20T02:10:38.168Z,82.90
2018-07-20T02:15:41.194Z,83.50
2018-07-20T02:20:44.228Z,84.30
2018-07-20T02:25:47.256Z,84.80
2018-07-20T02:30:50.280Z,85.30
2018-07-20T02:35:53.312Z,85.60
2018-07-20T02:40:56.340Z,86.20
2018-07-20T02:45:59.352Z,86.90
2018-07-20T02:51:02.371Z,87.90
2018-07-20T02:56:05.441Z,88.70
2018-07-20T03:01:08.552Z,89.10
2018-07-20T03:06:11.608Z,89.60
2018-07-20T03:11:14.665Z,89.60
2018-07-20T03:16:17.742Z,90.00
2018-07-20T03:21:20.763Z,90.10
2018-07-20T03:26:23.798Z,90.20
2018-07-20T03:31:26.806Z,90.40
2018-07-20T03:36:29.844Z,90.60
2018-07-20T03:41:32.892Z,90.70
2018-07-20T03:46:36.144Z,91.00
2018-07-20T03:51:39.176Z,91.00
2018-07-20T03:56:42.178Z,91.10
2018-07-20T04:01:45.212Z,91.30
2018-07-20T04:06:48.218Z,91.20
2018-07-20T04:11:51.274Z,91.10
2018-07-20T04:16:54.295Z,90.90
2018-07-20T04:21:57.382Z,91.30
2018-07-20T04:27:00.406Z,91.20
2018-07-20T04:32:03.458Z,91.30
2018-07-20T04:37:06.481Z,91.40
2018-07-20T04:47:12.338Z,91.50
2018-07-20T04:52:15.361Z,91.70
2018-07-20T04:57:18.399Z,91.50
2018-07-20T05:02:21.429Z,91.40
2018-07-20T05:07:24.470Z,90.80
2018-07-20T05:12:27.542Z,90.20
2018-07-20T05:17:30.648Z,89.90
2018-07-20T05:22:33.741Z,88.00
2018-07-20T05:27:36.759Z,87.10
2018-07-20T05:32:39.961Z,85.20
2018-07-20T05:37:43.106Z,85.70
2018-07-20T05:42:46.151Z,84.40
2018-07-20T05:47:49.177Z,84.00
2018-07-20T05:52:52.303Z,83.00
2018-07-20T05:57:55.373Z,82.50
2018-07-20T06:02:58.460Z,81.70
2018-07-20T06:08:01.508Z,81.30
2018-07-20T06:13:04.649Z,79.50
2018-07-20T06:18:07.703Z,78.70
2018-07-20T06:23:10.708Z,79.10
2018-07-20T06:28:13.934Z,79.40
2018-07-20T06:33:17.036Z,77.40
2018-07-20T06:38:20.060Z,78.30
2018-07-20T06:43:23.222Z,77.50
2018-07-20T06:48:26.255Z,76.60
2018-07-20T06:53:29.402Z,76.80
2018-07-20T06:58:32.436Z,76.40
2018-07-20T07:03:35.448Z,75.70
2018-07-20T07:08:38.445Z,74.00
2018-07-20T07:13:41.573Z,73.50
2018-07-20T07:18:44.666Z,72.70
2018-07-20T07:23:47.784Z,73.00
2018-07-20T07:28:50.882Z,71.70
2018-07-20T07:33:53.971Z,71.10
2018-07-20T07:38:57.076Z,71.20
2018-07-20T07:44:00.104Z,71.00
2018-07-20T07:49:03.134Z,69.80
2018-07-20T07:54:06.233Z,69.50
2018-07-20T07:59:09.268Z,70.00
2018-07-20T08:04:12.299Z,70.00
2018-07-20T08:09:15.363Z,70.70
2018-07-20T08:14:18.520Z,70.40
2018-07-20T08:19:22.447Z,70.20
2018-07-20T08:24:25.534Z,67.30
2018-07-20T08:29:28.694Z,69.60
2018-07-20T08:34:31.691Z,66.70
2018-07-20T08:39:34.812Z,67.00
2018-07-20T08:44:37.915Z,65.90
2018-07-20T08:49:40.967Z,64.60
2018-07-20T08:54:44.184Z,62.20
2018-07-20T08:59:47.527Z,59.80
2018-07-20T09:04:50.559Z,59.60
2018-07-20T09:09:53.585Z,60.60
2018-07-20T09:14:56.687Z,58.20
2018-07-20T09:19:59.742Z,58.50
2018-07-20T09:25:02.823Z,58.90
2018-07-20T09:30:05.864Z,58.80
2018-07-20T09:35:08.956Z,58.70
2018-07-20T09:40:12.031Z,58.00
2018-07-20T09:45:15.084Z,57.20
2018-07-20T09:50:18.128Z,55.00
2018-07-20T09:55:21.214Z,54.40
2018-07-20T10:00:29.811Z,53.50
2018-07-20T10:05:33.130Z,52.60
2018-07-20T10:10:36.332Z,53.40
2018-07-20T10:15:39.381Z,51.10
2018-07-20T10:20:42.382Z,53.20
2018-07-20T10:25:45.504Z,53.40
2018-07-20T10:30:48.519Z,52.90
2018-07-20T10:35:51.577Z,52.50
2018-07-20T10:40:54.654Z,52.10
2018-07-20T10:45:57.708Z,51.30
2018-07-20T10:51:00.792Z,52.30
2018-07-20T10:56:03.930Z,52.00
2018-07-20T11:01:07.227Z,51.70
2018-07-20T11:06:10.274Z,52.10
2018-07-20T11:11:13.489Z,53.00
2018-07-20T11:16:16.530Z,52.20
2018-07-20T11:21:19.642Z,50.60
2018-07-20T11:26:23.045Z,50.90
2018-07-20T11:31:26.434Z,51.80
2018-07-20T11:36:29.744Z,51.70
2018-07-20T11:41:33.163Z,53.60
2018-07-20T11:46:36.642Z,48.60
2018-07-20T11:51:40.100Z,50.10
2018-07-20T11:56:43.511Z,50.80
2018-07-20T12:01:46.997Z,49.90
2018-07-20T12:06:50.101Z,47.80
2018-07-20T12:11:53.157Z,50.20
2018-07-20T12:16:56.487Z,49.40
2018-07-20T12:21:59.494Z,50.00
2018-07-20T12:27:02.571Z,50.30
2018-07-20T12:32:05.603Z,51.30
2018-07-20T12:37:08.687Z,47.10
2018-07-20T12:42:11.755Z,45.80
2018-07-20T12:47:15.098Z,47.00
2018-07-20T12:52:18.147Z,45.90
2018-07-20T12:57:21.239Z,47.00
2018-07-20T13:02:24.335Z,45.20
2018-07-20T13:07:27.372Z,44.70
2018-07-20T13:12:30.424Z,45.00
2018-07-20T13:17:33.427Z,46.50
2018-07-20T13:22:36.449Z,47.20
2018-07-20T13:27:39.540Z,45.30
2018-07-20T13:32:42.604Z,44.40
2018-07-20T13:37:45.638Z,42.00
2018-07-20T13:42:48.743Z,42.90
2018-07-20T13:47:51.771Z,45.00
2018-07-20T13:52:54.879Z,43.80
2018-07-20T13:57:57.861Z,43.50
2018-07-20T14:03:00.867Z,42.40
2018-07-20T14:08:03.937Z,43.40
2018-07-20T14:13:06.972Z,40.70
2018-07-20T14:18:10.082Z,41.50
2018-07-20T14:23:13.078Z,41.90
2018-07-20T14:28:16.206Z,39.50
2018-07-20T14:33:19.232Z,38.70
2018-07-20T14:38:22.515Z,41.90
2018-07-20T14:43:25.604Z,42.80
2018-07-20T14:48:28.612Z,42.10
2018-07-20T14:53:31.662Z,42.20
2018-07-20T14:58:35.638Z,42.00
2018-07-20T15:03:38.727Z,42.40
2018-07-20T15:08:41.849Z,40.40
2018-07-20T15:13:44.929Z,42.50
2018-07-20T15:18:47.985Z,41.10
2018-07-20T15:23:51.088Z,40.60
2018-07-20T15:28:54.131Z,41.50
2018-07-20T15:33:57.608Z,41.60
2018-07-20T15:39:00.630Z,42.00
2018-07-20T15:44:03.693Z,41.40
2018-07-20T15:49:06.758Z,40.20
2018-07-20T15:54:09.823Z,40.70
2018-07-20T15:59:12.951Z,40.70
2018-07-20T16:04:16.074Z,41.40
2018-07-20T16:09:19.164Z,40.70
2018-07-20T16:14:22.296Z,40.90
2018-07-20T16:19:25.768Z,41.20
2018-07-20T16:24:29.302Z,40.80
2018-07-20T16:29:32.737Z,40.60
2018-07-20T16:34:36.235Z,41.00
2018-07-20T16:39:39.721Z,41.40
2018-07-20T16:44:43.141Z,41.20
2018-07-20T16:49:46.541Z,42.60
2018-07-20T16:54:50.086Z,42.50
2018-07-20T16:59:53.440Z,42.70
2018-07-20T17:04:56.950Z,42.70
2018-07-20T17:10:00.342Z,42.30
2018-07-20T17:15:04.066Z,42.30
2018-07-20T17:20:07.467Z,42.30
2018-07-20T17:25:10.971Z,42.60
2018-07-20T17:30:14.382Z,42.90
2018-07-20T17:35:17.870Z,43.30
2018-07-20T17:40:21.121Z,43.10
2018-07-20T17:45:24.287Z,43.40
2018-07-20T17:50:27.679Z,43.50
2018-07-20T17:55:30.892Z,43.40
2018-07-20T18:00:33.931Z,43.50
2018-07-20T18:05:36.991Z,43.40
2018-07-20T18:10:40.042Z,43.30
2018-07-20T18:15:43.080Z,44.10
2018-07-20T18:20:46.140Z,45.00
2018-07-20T18:25:49.182Z,44.90
2018-07-20T18:30:52.930Z,45.10
2018-07-20T18:35:55.966Z,45.30
2018-07-20T18:40:59.042Z,46.60
2018-07-20T18:46:02.104Z,46.20
2018-07-20T18:51:05.175Z,46.40
2018-07-20T18:56:08.232Z,46.10
2018-07-20T19:01:11.320Z,45.80
2018-07-20T19:06:14.460Z,44.70
2018-07-20T19:11:17.507Z,45.10
2018-07-20T19:16:20.580Z,44.80
2018-07-20T19:21:23.636Z,44.90
2018-07-20T19:26:26.698Z,44.80
2018-07-20T19:31:29.756Z,44.80
2018-07-20T19:36:32.900Z,45.20
2018-07-20T19:41:35.975Z,45.40
2018-07-20T19:46:39.240Z,45.30
2018-07-20T19:51:42.569Z,45.20
2018-07-20T19:56:45.999Z,45.10
2018-07-20T20:01:49.421Z,45.30
2018-07-20T20:06:52.538Z,46.00
2018-07-20T20:11:55.545Z,46.00
2018-07-20T20:16:58.602Z,46.20
2018-07-20T20:22:01.626Z,46.00
2018-07-20T20:27:04.827Z,46.10
2018-07-20T20:32:07.845Z,46.20
2018-07-20T20:37:10.940Z,46.40
2018-07-20T20:42:13.975Z,46.50
2018-07-20T20:47:17.047Z,47.00
2018-07-20T20:52:20.435Z,47.00
2018-07-20T20:57:23.572Z,47.20
2018-07-20T21:02:26.652Z,47.50
2018-07-20T21:07:29.870Z,47.60
2018-07-20T21:12:33.186Z,47.50
2018-07-20T21:17:36.223Z,47.30
2018-07-20T21:22:39.335Z,47.30
2018-07-20T21:27:42.374Z,47.20
2018-07-20T21:32:45.407Z,47.20
2018-07-20T21:37:48.441Z,47.30
2018-07-20T21:42:51.490Z,47.50
2018-07-20T21:47:54.549Z,47.40
2018-07-20T21:52:57.571Z,47.50
2018-07-20T21:58:00.674Z,47.60
2018-07-20T22:03:04.546Z,48.00
2018-07-20T22:08:07.556Z,47.90
2018-07-20T22:13:10.628Z,48.20
2018-07-20T22:18:13.730Z,48.60
2018-07-20T22:23:16.790Z,48.70
2018-07-20T22:28:19.813Z,48.90
2018-07-20T22:33:22.849Z,49.20
2018-07-20T22:38:25.891Z,49.80
2018-07-20T22:43:28.949Z,49.70
2018-07-20T22:48:32.007Z,49.70
2018-07-20T22:58:37.953Z,50.00
2018-07-20T23:03:40.986Z,50.60
2018-07-20T23:08:44.310Z,51.30
2018-07-20T23:13:47.346Z,51.20
2018-07-20T23:18:50.366Z,51.10
2018-07-20T23:23:53.404Z,51.10
2018-07-20T23:28:56.419Z,51.20
2018-07-20T23:33:59.529Z,51.80
2018-07-20T23:39:02.575Z,52.50
2018-07-20T23:44:05.920Z,52.50
2018-07-20T23:49:08.965Z,53.00
2018-07-20T23:54:12.102Z,53.60
2018-07-20T23:59:15.149Z,54.40
